sensor_id;sensor_type;location;lat;lon;timestamp;P1;durP1;ratioP1;P2;durP2;ratioP2
56519;SDS011;42420;53.586;10.052;2023-04-28T00:00:22;15.43;;;7.40;;
56519;SDS011;42420;53.586;10.052;2023-04-28T00:05:20;13.93;;;8.07;;
56519;SDS011;42420;53.586;10.052;2023-04-28T00:10:20;11.70;;;6.88;;
56519;SDS011;42420;53.586;10.052;2023-04-28T00:15:17;13.00;;;7.25;;
56519;SDS011;42420;53.586;10.052;2023-04-28T00:20:14;12.23;;;7.55;;
56519;SDS011;42420;53.586;10.052;2023-04-28T00:25:14;14.40;;;7.20;;
56519;SDS011;42420;53.586;10.052;2023-04-28T00:30:13;14.82;;;8.05;;
56519;SDS011;42420;53.586;10.052;2023-04-28T00:35:10;11.95;;;6.78;;
56519;SDS011;42420;53.586;10.052;2023-04-28T00:40:10;11.65;;;7.00;;
56519;SDS011;42420;53.586;10.052;2023-04-28T00:45:07;15.05;;;7.50;;
56519;SDS011;42420;53.586;10.052;2023-04-28T00:50:04;11.95;;;6.75;;
56519;SDS011;42420;53.586;10.052;2023-04-28T00:55:02;12.18;;;7.03;;
56519;SDS011;42420;53.586;10.052;2023-04-28T00:59:59;14.32;;;7.47;;
56519;SDS011;42420;53.586;10.052;2023-04-28T01:09:53;12.25;;;6.72;;
56519;SDS011;42420;53.586;10.052;2023-04-28T01:14:50;12.25;;;6.95;;
56519;SDS011;42420;53.586;10.052;2023-04-28T01:19:47;12.63;;;7.03;;
56519;SDS011;42420;53.586;10.052;2023-04-28T01:29:41;14.65;;;6.85;;
56519;SDS011;42420;53.586;10.052;2023-04-28T01:34:38;14.00;;;6.70;;
56519;SDS011;42420;53.586;10.052;2023-04-28T01:39:34;13.73;;;7.25;;
56519;SDS011;42420;53.586;10.052;2023-04-28T01:44:31;11.25;;;6.40;;
56519;SDS011;42420;53.586;10.052;2023-04-28T01:49:31;13.20;;;5.93;;
56519;SDS011;42420;53.586;10.052;2023-04-28T01:54:30;11.20;;;6.78;;
56519;SDS011;42420;53.586;10.052;2023-04-28T01:59:29;12.43;;;6.63;;
56519;SDS011;42420;53.586;10.052;2023-04-28T02:04:25;12.52;;;7.10;;
56519;SDS011;42420;53.586;10.052;2023-04-28T02:09:24;14.27;;;6.68;;
56519;SDS011;42420;53.586;10.052;2023-04-28T02:14:21;9.93;;;6.45;;
56519;SDS011;42420;53.586;10.052;2023-04-28T02:19:22;12.75;;;6.32;;
56519;SDS011;42420;53.586;10.052;2023-04-28T02:24:18;11.10;;;7.18;;
56519;SDS011;42420;53.586;10.052;2023-04-28T02:29:17;12.93;;;7.40;;
56519;SDS011;42420;53.586;10.052;2023-04-28T02:34:15;11.13;;;6.85;;
56519;SDS011;42420;53.586;10.052;2023-04-28T02:39:12;10.73;;;6.85;;
56519;SDS011;42420;53.586;10.052;2023-04-28T02:44:14;12.23;;;6.97;;
56519;SDS011;42420;53.586;10.052;2023-04-28T02:49:11;14.25;;;8.02;;
56519;SDS011;42420;53.586;10.052;2023-04-28T02:54:08;11.80;;;6.95;;
56519;SDS011;42420;53.586;10.052;2023-04-28T02:59:05;11.82;;;6.85;;
56519;SDS011;42420;53.586;10.052;2023-04-28T03:04:03;12.98;;;7.30;;
56519;SDS011;42420;53.586;10.052;2023-04-28T03:09:01;15.02;;;7.82;;
56519;SDS011;42420;53.586;10.052;2023-04-28T03:14:01;12.07;;;7.25;;
56519;SDS011;42420;53.586;10.052;2023-04-28T03:18:58;16.80;;;7.03;;
56519;SDS011;42420;53.586;10.052;2023-04-28T03:23:57;10.77;;;6.85;;
56519;SDS011;42420;53.586;10.052;2023-04-28T03:28:53;14.80;;;6.55;;
56519;SDS011;42420;53.586;10.052;2023-04-28T03:33:59;11.00;;;5.88;;
56519;SDS011;42420;53.586;10.052;2023-04-28T03:38:55;13.25;;;6.15;;
56519;SDS011;42420;53.586;10.052;2023-04-28T03:43:54;10.32;;;5.72;;
56519;SDS011;42420;53.586;10.052;2023-04-28T03:48:52;10.23;;;5.13;;
56519;SDS011;42420;53.586;10.052;2023-04-28T03:53:49;11.50;;;6.20;;
56519;SDS011;42420;53.586;10.052;2023-04-28T03:58:45;10.50;;;5.50;;
56519;SDS011;42420;53.586;10.052;2023-04-28T04:03:44;10.07;;;5.35;;
56519;SDS011;42420;53.586;10.052;2023-04-28T04:13:43;10.52;;;5.38;;
56519;SDS011;42420;53.586;10.052;2023-04-28T04:18:40;11.30;;;5.68;;
56519;SDS011;42420;53.586;10.052;2023-04-28T04:23:40;12.77;;;5.70;;
56519;SDS011;42420;53.586;10.052;2023-04-28T04:28:37;10.27;;;5.40;;
56519;SDS011;42420;53.586;10.052;2023-04-28T04:33:38;12.10;;;5.53;;
56519;SDS011;42420;53.586;10.052;2023-04-28T04:38:46;9.93;;;5.30;;
56519;SDS011;42420;53.586;10.052;2023-04-28T04:43:52;10.25;;;4.95;;
56519;SDS011;42420;53.586;10.052;2023-04-28T04:48:59;10.75;;;5.13;;
56519;SDS011;42420;53.586;10.052;2023-04-28T04:53:58;10.90;;;5.60;;
56519;SDS011;42420;53.586;10.052;2023-04-28T05:04:06;10.27;;;5.07;;
56519;SDS011;42420;53.586;10.052;2023-04-28T05:09:14;9.73;;;4.70;;
56519;SDS011;42420;53.586;10.052;2023-04-28T05:14:15;13.32;;;5.15;;
56519;SDS011;42420;53.586;10.052;2023-04-28T05:19:14;8.38;;;4.35;;
56519;SDS011;42420;53.586;10.052;2023-04-28T06:39:51;8.10;;;2.35;;
56519;SDS011;42420;53.586;10.052;2023-04-28T06:52:23;4.47;;;1.85;;
56519;SDS011;42420;53.586;10.052;2023-04-28T06:58:27;6.35;;;2.20;;
56519;SDS011;42420;53.586;10.052;2023-04-28T07:10:02;5.55;;;2.38;;
56519;SDS011;42420;53.586;10.052;2023-04-28T07:15:19;6.63;;;2.30;;
56519;SDS011;42420;53.586;10.052;2023-04-28T07:20:58;6.57;;;2.33;;
56519;SDS011;42420;53.586;10.052;2023-04-28T07:26:14;6.22;;;1.88;;
56519;SDS011;42420;53.586;10.052;2023-04-28T07:31:45;7.32;;;2.22;;
56519;SDS011;42420;53.586;10.052;2023-04-28T07:37:31;8.23;;;2.28;;
56519;SDS011;42420;53.586;10.052;2023-04-28T07:43:09;8.45;;;2.17;;
56519;SDS011;42420;53.586;10.052;2023-04-28T07:48:41;5.38;;;2.03;;
56519;SDS011;42420;53.586;10.052;2023-04-28T07:53:44;5.57;;;2.15;;
56519;SDS011;42420;53.586;10.052;2023-04-28T07:59:43;4.18;;;1.95;;
56519;SDS011;42420;53.586;10.052;2023-04-28T08:17:21;6.80;;;2.03;;
56519;SDS011;42420;53.586;10.052;2023-04-28T08:23:06;5.90;;;2.42;;
56519;SDS011;42420;53.586;10.052;2023-04-28T08:28:17;8.27;;;2.50;;
56519;SDS011;42420;53.586;10.052;2023-04-28T08:33:33;8.82;;;2.70;;
56519;SDS011;42420;53.586;10.052;2023-04-28T08:38:50;8.82;;;2.40;;
56519;SDS011;42420;53.586;10.052;2023-04-28T08:44:15;8.82;;;2.40;;
56519;SDS011;42420;53.586;10.052;2023-04-28T08:49:54;9.15;;;2.22;;
56519;SDS011;42420;53.586;10.052;2023-04-28T08:55:35;6.40;;;2.00;;
56519;SDS011;42420;53.586;10.052;2023-04-28T09:01:22;9.18;;;2.70;;
56519;SDS011;42420;53.586;10.052;2023-04-28T09:06:36;6.03;;;2.47;;
56519;SDS011;42420;53.586;10.052;2023-04-28T09:29:22;6.10;;;3.25;;
56519;SDS011;42420;53.586;10.052;2023-04-28T09:34:49;11.25;;;2.83;;
56519;SDS011;42420;53.586;10.052;2023-04-28T09:40:17;7.00;;;2.67;;
56519;SDS011;42420;53.586;10.052;2023-04-28T09:46:03;5.35;;;2.70;;
56519;SDS011;42420;53.586;10.052;2023-04-28T09:51:40;6.90;;;2.67;;
56519;SDS011;42420;53.586;10.052;2023-04-28T14:09:50;9.45;;;4.60;;
56519;SDS011;42420;53.586;10.052;2023-04-28T14:14:50;8.52;;;4.03;;
56519;SDS011;42420;53.586;10.052;2023-04-28T14:19:48;12.52;;;4.47;;
56519;SDS011;42420;53.586;10.052;2023-04-28T14:24:46;9.65;;;5.03;;
56519;SDS011;42420;53.586;10.052;2023-04-28T14:29:46;9.77;;;4.75;;
56519;SDS011;42420;53.586;10.052;2023-04-28T14:34:53;11.20;;;4.68;;
56519;SDS011;42420;53.586;10.052;2023-04-28T14:39:55;9.63;;;4.45;;
56519;SDS011;42420;53.586;10.052;2023-04-28T14:44:58;7.82;;;4.10;;
56519;SDS011;42420;53.586;10.052;2023-04-28T14:50:00;7.88;;;4.13;;
56519;SDS011;42420;53.586;10.052;2023-04-28T14:55:00;12.93;;;5.03;;
56519;SDS011;42420;53.586;10.052;2023-04-28T15:00:06;11.32;;;4.95;;
56519;SDS011;42420;53.586;10.052;2023-04-28T15:05:15;9.88;;;4.85;;
56519;SDS011;42420;53.586;10.052;2023-04-28T15:10:14;11.45;;;5.03;;
56519;SDS011;42420;53.586;10.052;2023-04-28T15:15:13;9.07;;;4.88;;
56519;SDS011;42420;53.586;10.052;2023-04-28T15:20:10;10.07;;;5.03;;
56519;SDS011;42420;53.586;10.052;2023-04-28T15:25:09;9.95;;;4.65;;
56519;SDS011;42420;53.586;10.052;2023-04-28T15:30:06;10.88;;;5.28;;
56519;SDS011;42420;53.586;10.052;2023-04-28T15:35:06;9.60;;;4.68;;
56519;SDS011;42420;53.586;10.052;2023-04-28T15:40:07;8.27;;;4.35;;
56519;SDS011;42420;53.586;10.052;2023-04-28T15:45:11;11.57;;;4.70;;
56519;SDS011;42420;53.586;10.052;2023-04-28T15:50:14;9.70;;;4.65;;
56519;SDS011;42420;53.586;10.052;2023-04-28T15:55:16;10.25;;;4.55;;
56519;SDS011;42420;53.586;10.052;2023-04-28T16:00:16;13.05;;;5.38;;
56519;SDS011;42420;53.586;10.052;2023-04-28T16:05:13;8.32;;;4.10;;
56519;SDS011;42420;53.586;10.052;2023-04-28T16:10:11;10.55;;;4.53;;
56519;SDS011;42420;53.586;10.052;2023-04-28T16:15:12;9.73;;;4.80;;
56519;SDS011;42420;53.586;10.052;2023-04-28T16:20:09;11.93;;;4.75;;
56519;SDS011;42420;53.586;10.052;2023-04-28T16:25:07;9.93;;;4.70;;
56519;SDS011;42420;53.586;10.052;2023-04-28T16:30:08;9.15;;;4.45;;
56519;SDS011;42420;53.586;10.052;2023-04-28T16:35:07;9.50;;;4.07;;
56519;SDS011;42420;53.586;10.052;2023-04-28T16:40:11;8.65;;;4.55;;
56519;SDS011;42420;53.586;10.052;2023-04-28T16:45:11;8.65;;;4.40;;
56519;SDS011;42420;53.586;10.052;2023-04-28T16:50:44;11.40;;;4.75;;
56519;SDS011;42420;53.586;10.052;2023-04-28T16:56:33;11.05;;;5.03;;
56519;SDS011;42420;53.586;10.052;2023-04-28T17:01:37;10.00;;;4.70;;
56519;SDS011;42420;53.586;10.052;2023-04-28T17:06:34;11.23;;;5.03;;
56519;SDS011;42420;53.586;10.052;2023-04-28T17:11:33;10.98;;;4.90;;
56519;SDS011;42420;53.586;10.052;2023-04-28T17:16:33;12.60;;;6.90;;
56519;SDS011;42420;53.586;10.052;2023-04-28T17:21:29;15.70;;;6.68;;
56519;SDS011;42420;53.586;10.052;2023-04-28T17:26:29;15.35;;;7.45;;
56519;SDS011;42420;53.586;10.052;2023-04-28T17:31:26;16.02;;;7.28;;
56519;SDS011;42420;53.586;10.052;2023-04-28T17:36:27;14.02;;;7.25;;
56519;SDS011;42420;53.586;10.052;2023-04-28T17:41:24;15.05;;;8.75;;
56519;SDS011;42420;53.586;10.052;2023-04-28T17:46:22;19.40;;;9.27;;
56519;SDS011;42420;53.586;10.052;2023-04-28T17:51:21;19.85;;;8.95;;
56519;SDS011;42420;53.586;10.052;2023-04-28T17:56:26;15.65;;;8.40;;
56519;SDS011;42420;53.586;10.052;2023-04-28T18:01:48;13.50;;;8.40;;
56519;SDS011;42420;53.586;10.052;2023-04-28T18:06:45;16.10;;;8.60;;
56519;SDS011;42420;53.586;10.052;2023-04-28T18:11:45;14.68;;;8.45;;
56519;SDS011;42420;53.586;10.052;2023-04-28T18:16:44;15.00;;;9.40;;
56519;SDS011;42420;53.586;10.052;2023-04-28T18:21:42;19.15;;;10.30;;
56519;SDS011;42420;53.586;10.052;2023-04-28T18:26:38;20.52;;;10.68;;
56519;SDS011;42420;53.586;10.052;2023-04-28T18:31:35;21.13;;;10.18;;
56519;SDS011;42420;53.586;10.052;2023-04-28T18:36:36;17.40;;;10.70;;
56519;SDS011;42420;53.586;10.052;2023-04-28T18:41:33;21.17;;;11.02;;
56519;SDS011;42420;53.586;10.052;2023-04-28T18:46:30;17.15;;;10.98;;
56519;SDS011;42420;53.586;10.052;2023-04-28T18:51:28;21.80;;;12.05;;
56519;SDS011;42420;53.586;10.052;2023-04-28T18:56:25;23.85;;;12.95;;
56519;SDS011;42420;53.586;10.052;2023-04-28T19:01:22;19.42;;;12.18;;
56519;SDS011;42420;53.586;10.052;2023-04-28T19:06:19;17.02;;;10.20;;
56519;SDS011;42420;53.586;10.052;2023-04-28T19:11:17;17.88;;;11.05;;
56519;SDS011;42420;53.586;10.052;2023-04-28T19:16:13;17.20;;;10.65;;
56519;SDS011;42420;53.586;10.052;2023-04-28T19:21:10;20.55;;;11.57;;
56519;SDS011;42420;53.586;10.052;2023-04-28T19:26:08;21.05;;;11.13;;
56519;SDS011;42420;53.586;10.052;2023-04-28T19:31:07;18.42;;;10.00;;
56519;SDS011;42420;53.586;10.052;2023-04-28T19:36:06;18.92;;;11.13;;
56519;SDS011;42420;53.586;10.052;2023-04-28T19:41:07;16.00;;;10.50;;
56519;SDS011;42420;53.586;10.052;2023-04-28T19:46:03;19.35;;;10.27;;
56519;SDS011;42420;53.586;10.052;2023-04-28T19:51:00;18.77;;;11.10;;
56519;SDS011;42420;53.586;10.052;2023-04-28T19:55:57;18.73;;;10.48;;
56519;SDS011;42420;53.586;10.052;2023-04-28T20:00:59;17.67;;;10.52;;
56519;SDS011;42420;53.586;10.052;2023-04-28T20:05:59;17.13;;;12.05;;
56519;SDS011;42420;53.586;10.052;2023-04-28T20:10:55;20.17;;;12.90;;
56519;SDS011;42420;53.586;10.052;2023-04-28T20:15:53;15.45;;;11.93;;
56519;SDS011;42420;53.586;10.052;2023-04-28T20:20:51;18.48;;;11.77;;
56519;SDS011;42420;53.586;10.052;2023-04-28T20:25:49;18.83;;;12.63;;
56519;SDS011;42420;53.586;10.052;2023-04-28T20:30:45;17.98;;;12.10;;
56519;SDS011;42420;53.586;10.052;2023-04-28T20:35:42;16.17;;;10.95;;
56519;SDS011;42420;53.586;10.052;2023-04-28T20:40:39;16.95;;;10.90;;
56519;SDS011;42420;53.586;10.052;2023-04-28T20:50:43;17.42;;;11.10;;
56519;SDS011;42420;53.586;10.052;2023-04-28T20:55:40;19.05;;;10.55;;
56519;SDS011;42420;53.586;10.052;2023-04-28T21:00:40;17.70;;;10.52;;
56519;SDS011;42420;53.586;10.052;2023-04-28T21:05:49;15.77;;;10.50;;
56519;SDS011;42420;53.586;10.052;2023-04-28T21:10:54;18.00;;;10.70;;
56519;SDS011;42420;53.586;10.052;2023-04-28T21:15:57;16.73;;;10.80;;
56519;SDS011;42420;53.586;10.052;2023-04-28T21:20:58;15.38;;;9.45;;
56519;SDS011;42420;53.586;10.052;2023-04-28T21:25:54;17.13;;;10.27;;
56519;SDS011;42420;53.586;10.052;2023-04-28T21:36:01;16.63;;;9.82;;
56519;SDS011;42420;53.586;10.052;2023-04-28T21:41:00;14.90;;;10.13;;
56519;SDS011;42420;53.586;10.052;2023-04-28T21:45:57;16.20;;;10.48;;
56519;SDS011;42420;53.586;10.052;2023-04-28T21:50:54;15.88;;;10.07;;
56519;SDS011;42420;53.586;10.052;2023-04-28T21:55:51;15.80;;;9.32;;
56519;SDS011;42420;53.586;10.052;2023-04-28T22:00:48;13.82;;;9.27;;
56519;SDS011;42420;53.586;10.052;2023-04-28T22:05:47;13.75;;;9.30;;
56519;SDS011;42420;53.586;10.052;2023-04-28T22:10:43;14.52;;;8.27;;
56519;SDS011;42420;53.586;10.052;2023-04-28T22:15:40;16.52;;;8.85;;
56519;SDS011;42420;53.586;10.052;2023-04-28T22:20:38;12.85;;;7.68;;
56519;SDS011;42420;53.586;10.052;2023-04-28T22:25:42;14.52;;;8.07;;
56519;SDS011;42420;53.586;10.052;2023-04-28T22:30:40;15.63;;;8.23;;
56519;SDS011;42420;53.586;10.052;2023-04-28T22:40:33;18.52;;;10.20;;
56519;SDS011;42420;53.586;10.052;2023-04-28T22:45:30;13.60;;;7.93;;
56519;SDS011;42420;53.586;10.052;2023-04-28T22:50:27;11.43;;;7.03;;
56519;SDS011;42420;53.586;10.052;2023-04-28T22:55:27;12.20;;;7.40;;
56519;SDS011;42420;53.586;10.052;2023-04-28T23:00:23;12.50;;;7.40;;
56519;SDS011;42420;53.586;10.052;2023-04-28T23:05:20;12.65;;;6.75;;
56519;SDS011;42420;53.586;10.052;2023-04-28T23:10:29;12.43;;;7.28;;
56519;SDS011;42420;53.586;10.052;2023-04-28T23:15:26;12.68;;;7.78;;
56519;SDS011;42420;53.586;10.052;2023-04-28T23:20:22;12.18;;;6.32;;
56519;SDS011;42420;53.586;10.052;2023-04-28T23:25:19;10.32;;;6.35;;
56519;SDS011;42420;53.586;10.052;2023-04-28T23:30:16;11.77;;;6.80;;
56519;SDS011;42420;53.586;10.052;2023-04-28T23:35:12;15.13;;;7.25;;
56519;SDS011;42420;53.586;10.052;2023-04-28T23:40:09;10.90;;;7.40;;
56519;SDS011;42420;53.586;10.052;2023-04-28T23:45:07;14.52;;;7.70;;
56519;SDS011;42420;53.586;10.052;2023-04-28T23:50:06;13.00;;;8.07;;
56519;SDS011;42420;53.586;10.052;2023-04-28T23:55:03;12.90;;;8.10;;
